createdAt,value
2022-09-11T00:01:19.952Z,10.43
2022-09-11T00:03:48.156Z,10.97
2022-09-11T00:06:28.874Z,9.80
2022-09-11T00:09:00.801Z,9.15
2022-09-11T00:11:30.323Z,11.63
2022-09-11T00:13:58.727Z,10.77
2022-09-11T00:16:29.625Z,10.70
2022-09-11T00:19:00.101Z,11.43
2022-09-11T00:21:29.480Z,11.10
2022-09-11T00:23:58.132Z,11.40
2022-09-11T00:26:26.629Z,11.07
2022-09-11T00:28:55.433Z,11.50
2022-09-11T00:31:25.911Z,12.30
2022-09-11T00:33:55.394Z,10.80
2022-09-11T00:36:24.803Z,12.23
2022-09-11T00:38:53.324Z,11.43
2022-09-11T00:41:24.271Z,11.03
2022-09-11T00:43:56.352Z,10.07
2022-09-11T00:46:26.358Z,11.13
2022-09-11T00:48:57.292Z,11.10
2022-09-11T00:51:30.431Z,10.83
2022-09-11T00:53:59.840Z,11.33
2022-09-11T00:56:31.807Z,12.57
2022-09-11T00:59:01.254Z,11.77
2022-09-11T01:01:29.363Z,10.87
2022-09-11T01:03:58.970Z,10.20
2022-09-11T01:06:27.219Z,10.07
2022-09-11T01:08:55.252Z,10.90
2022-09-11T01:11:37.082Z,11.20
2022-09-11T01:14:14.467Z,10.63
2022-09-11T01:16:49.156Z,11.17
2022-09-11T01:19:31.508Z,11.50
2022-09-11T01:22:18.420Z,12.40
2022-09-11T01:24:57.400Z,13.23
2022-09-11T01:27:44.232Z,16.63
2022-09-11T01:30:14.635Z,12.97
2022-09-11T01:33:01.798Z,15.03
2022-09-11T01:35:41.248Z,15.10
2022-09-11T01:38:15.927Z,16.83
2022-09-11T01:40:52.987Z,16.07
2022-09-11T01:43:27.126Z,16.77
2022-09-11T01:45:57.607Z,18.83
2022-09-11T01:48:32.234Z,17.07
2022-09-11T01:51:02.602Z,16.87
2022-09-11T01:53:34.860Z,18.60
2022-09-11T01:56:07.813Z,18.97
2022-09-11T01:58:38.890Z,18.95
2022-09-11T02:01:12.288Z,20.73
2022-09-11T02:03:44.271Z,20.20
2022-09-11T02:06:18.834Z,19.87
2022-09-11T02:08:50.185Z,20.43
2022-09-11T02:11:19.206Z,19.73
2022-09-11T02:13:56.912Z,19.37
2022-09-11T02:16:38.715Z,20.37
2022-09-11T02:19:08.190Z,19.37
2022-09-11T02:21:37.596Z,19.83
2022-09-11T02:24:06.456Z,21.00
2022-09-11T02:26:39.650Z,19.33
2022-09-11T02:29:09.378Z,21.47
2022-09-11T02:31:38.114Z,21.67
2022-09-11T02:34:06.210Z,23.00
2022-09-11T02:36:46.878Z,20.93
2022-09-11T02:39:29.284Z,19.17
2022-09-11T02:42:25.881Z,21.37
2022-09-11T02:45:03.264Z,20.60
2022-09-11T02:47:42.799Z,22.33
2022-09-11T02:50:21.931Z,21.37
2022-09-11T02:52:57.974Z,22.13
2022-09-11T02:55:35.923Z,22.00
2022-09-11T02:58:09.292Z,21.97
2022-09-11T03:00:39.415Z,21.83
2022-09-11T03:03:07.539Z,22.10
2022-09-11T03:05:37.292Z,21.63
2022-09-11T03:08:05.377Z,19.27
2022-09-11T03:10:34.323Z,19.47
2022-09-11T03:13:02.332Z,19.43
2022-09-11T03:15:30.366Z,19.87
2022-09-11T03:17:59.743Z,20.33
2022-09-11T03:20:27.856Z,20.73
2022-09-11T03:22:55.887Z,20.83
2022-09-11T03:25:28.263Z,22.10
2022-09-11T03:27:56.289Z,21.17
2022-09-11T03:30:24.359Z,22.43
2022-09-11T03:32:52.391Z,20.17
2022-09-11T03:35:21.924Z,20.23
2022-09-11T03:37:50.506Z,21.53
2022-09-11T03:40:20.268Z,20.80
2022-09-11T03:42:48.598Z,21.00
2022-09-11T03:45:16.708Z,20.73
2022-09-11T03:47:44.754Z,22.37
2022-09-11T03:50:14.020Z,21.83
2022-09-11T03:52:43.719Z,23.80
2022-09-11T03:55:11.898Z,21.87
2022-09-11T03:57:40.607Z,23.13
2022-09-11T04:00:10.220Z,23.70
2022-09-11T04:02:38.296Z,22.93
2022-09-11T04:05:07.825Z,22.67
2022-09-11T04:07:36.014Z,23.20
2022-09-11T04:10:06.829Z,24.53
2022-09-11T04:12:34.870Z,24.40
2022-09-11T04:15:02.925Z,24.73
2022-09-11T04:17:31.165Z,24.83
2022-09-11T04:20:00.360Z,25.13
2022-09-11T04:22:28.495Z,23.80
2022-09-11T04:24:57.508Z,23.67
2022-09-11T04:27:27.244Z,25.17
2022-09-11T04:29:55.268Z,23.10
2022-09-11T04:32:23.310Z,24.83
2022-09-11T04:34:51.347Z,24.77
2022-09-11T04:37:19.907Z,24.37
2022-09-11T04:39:49.052Z,25.03
2022-09-11T04:42:17.222Z,25.10
2022-09-11T04:44:47.142Z,26.17
2022-09-11T04:47:16.186Z,24.27
2022-09-11T04:49:46.080Z,25.47
2022-09-11T04:52:15.394Z,23.87
2022-09-11T04:54:43.404Z,26.50
2022-09-11T04:57:11.504Z,24.07
2022-09-11T04:59:39.904Z,24.53
2022-09-11T05:02:09.428Z,26.27
2022-09-11T05:04:37.545Z,26.00
2022-09-11T05:07:05.864Z,26.83
2022-09-11T05:09:33.896Z,25.17
2022-09-11T05:12:02.692Z,26.67
2022-09-11T05:14:32.725Z,26.97
2022-09-11T05:17:01.491Z,27.60
2022-09-11T05:19:30.890Z,25.60
2022-09-11T05:21:58.968Z,25.97
2022-09-11T05:24:26.980Z,24.97
2022-09-11T05:26:55.037Z,25.17
2022-09-11T05:29:23.219Z,27.63
2022-09-11T05:31:53.239Z,27.87
2022-09-11T05:34:22.314Z,27.70
2022-09-11T05:36:52.164Z,26.97
2022-09-11T05:39:20.173Z,24.73
2022-09-11T05:41:51.100Z,25.10
2022-09-11T05:44:19.284Z,24.73
2022-09-11T05:46:48.410Z,26.40
2022-09-11T05:49:16.886Z,23.87
2022-09-11T05:51:45.247Z,24.30
2022-09-11T05:54:15.370Z,24.33
2022-09-11T05:56:43.491Z,24.40
2022-09-11T05:59:15.333Z,27.30
2022-09-11T06:01:44.105Z,25.70
2022-09-11T06:04:12.796Z,24.03
2022-09-11T06:06:40.915Z,22.53
2022-09-11T06:09:09.080Z,21.50
2022-09-11T06:11:38.494Z,22.10
2022-09-11T06:14:06.517Z,22.37
2022-09-11T06:16:35.284Z,24.20
2022-09-11T06:19:04.834Z,24.40
2022-09-11T06:21:32.896Z,28.55
2022-09-11T06:24:00.908Z,25.20
2022-09-11T06:26:29.510Z,26.80
2022-09-11T06:28:58.940Z,25.75
2022-09-11T06:31:28.368Z,28.52
2022-09-11T06:33:56.410Z,26.77
2022-09-11T06:36:27.701Z,25.63
2022-09-11T06:38:56.845Z,26.42
2022-09-11T06:41:26.091Z,25.10
2022-09-11T06:43:54.549Z,24.73
2022-09-11T06:46:25.561Z,25.45
2022-09-11T06:48:54.708Z,25.48
2022-09-11T06:51:24.137Z,23.90
2022-09-11T06:53:55.298Z,22.85
2022-09-11T06:56:23.411Z,24.75
2022-09-11T06:58:51.444Z,25.23
2022-09-11T07:01:20.880Z,22.83
2022-09-11T07:03:51.422Z,23.20
2022-09-11T07:06:21.254Z,23.85
2022-09-11T07:08:52.184Z,24.77
2022-09-11T07:11:20.656Z,24.63
2022-09-11T07:13:48.826Z,26.08
2022-09-11T07:16:17.162Z,24.08
2022-09-11T07:18:47.869Z,25.08
2022-09-11T07:21:21.006Z,25.65
2022-09-11T07:23:50.516Z,23.33
2022-09-11T07:26:19.732Z,22.67
2022-09-11T07:28:48.905Z,23.40
2022-09-11T07:31:21.036Z,23.08
2022-09-11T07:33:50.911Z,23.65
2022-09-11T07:36:22.075Z,22.60
2022-09-11T07:38:51.391Z,22.65
2022-09-11T07:41:22.476Z,22.90
2022-09-11T07:43:54.397Z,21.92
2022-09-11T07:46:22.654Z,21.70
2022-09-11T07:48:50.710Z,20.73
2022-09-11T07:51:21.124Z,21.50
2022-09-11T07:53:51.465Z,21.63
2022-09-11T07:56:23.226Z,21.83
2022-09-11T07:58:52.475Z,21.67
2022-09-11T08:01:22.827Z,22.65
2022-09-11T08:03:55.317Z,20.13
2022-09-11T08:06:25.255Z,20.98
2022-09-11T08:08:55.024Z,19.33
2022-09-11T08:11:23.529Z,21.92
2022-09-11T08:13:52.928Z,23.90
2022-09-11T08:16:21.408Z,22.40
2022-09-11T08:18:49.598Z,22.10
2022-09-11T08:21:17.950Z,20.08
2022-09-11T08:23:48.946Z,20.60
2022-09-11T08:26:18.718Z,21.17
2022-09-11T08:28:48.119Z,21.52
2022-09-11T08:31:16.273Z,20.65
2022-09-11T08:33:44.795Z,20.27
2022-09-11T08:36:14.670Z,20.63
2022-09-11T08:38:43.363Z,20.80
2022-09-11T08:41:19.899Z,20.90
2022-09-11T08:43:52.039Z,21.35
2022-09-11T08:46:23.688Z,20.50
2022-09-11T08:48:57.656Z,21.38
2022-09-11T08:51:26.418Z,20.38
2022-09-11T08:53:57.278Z,23.48
2022-09-11T08:56:29.856Z,21.27
2022-09-11T08:59:16.430Z,21.33
2022-09-11T09:01:53.154Z,22.50
2022-09-11T09:04:33.114Z,20.55
2022-09-11T09:07:11.435Z,20.17
2022-09-11T09:09:49.412Z,18.77
2022-09-11T09:12:23.819Z,16.17
2022-09-11T09:15:42.933Z,17.63
2022-09-11T09:18:16.537Z,17.73
2022-09-11T09:20:48.203Z,18.85
2022-09-11T09:23:22.180Z,17.17
2022-09-11T09:25:53.190Z,16.20
2022-09-11T09:28:25.513Z,17.35
2022-09-11T09:30:57.473Z,17.23
2022-09-11T09:33:31.863Z,17.30
2022-09-11T09:36:13.317Z,15.88
2022-09-11T09:38:41.836Z,13.57
2022-09-11T09:41:43.479Z,12.63
2022-09-11T09:44:20.100Z,12.18
2022-09-11T09:46:51.354Z,12.65
2022-09-11T09:49:25.292Z,12.95
2022-09-11T09:52:03.537Z,12.55
2022-09-11T09:54:36.502Z,12.20
2022-09-11T09:57:07.576Z,13.57
2022-09-11T09:59:42.909Z,12.07
2022-09-11T10:02:10.998Z,13.40
2022-09-11T10:04:39.390Z,12.75
2022-09-11T10:07:10.738Z,15.07
2022-09-11T10:09:46.769Z,15.90
2022-09-11T10:12:19.337Z,16.02
2022-09-11T10:14:55.615Z,15.07
2022-09-11T10:17:31.286Z,14.55
2022-09-11T10:20:21.924Z,13.73
2022-09-11T10:22:50.828Z,12.82
2022-09-11T10:25:21.640Z,11.73
2022-09-11T10:28:08.988Z,13.52
2022-09-11T10:30:40.444Z,12.77
2022-09-11T10:33:19.897Z,11.57
2022-09-11T10:35:55.113Z,10.45
2022-09-11T10:38:28.816Z,10.10
2022-09-11T10:41:08.418Z,10.20
2022-09-11T10:43:49.481Z,11.20
2022-09-11T10:46:40.715Z,9.52
2022-09-11T10:49:17.257Z,10.63
2022-09-11T10:51:59.968Z,8.95
2022-09-11T10:54:39.900Z,8.85
2022-09-11T10:57:14.706Z,8.15
2022-09-11T10:59:55.388Z,6.82
2022-09-11T11:02:30.441Z,8.10
2022-09-11T11:05:02.636Z,9.15
2022-09-11T11:07:50.240Z,9.25
2022-09-11T11:10:32.401Z,9.15
2022-09-11T11:13:18.200Z,9.43
2022-09-11T11:15:58.357Z,8.93
2022-09-11T11:18:54.683Z,10.20
2022-09-11T11:21:39.127Z,10.05
2022-09-11T11:24:23.097Z,9.43
2022-09-11T11:27:04.624Z,10.07
2022-09-11T11:29:50.632Z,10.65
2022-09-11T11:32:33.766Z,9.68
2022-09-11T11:35:21.426Z,8.90
2022-09-11T11:37:51.156Z,8.07
2022-09-11T11:40:28.627Z,8.85
2022-09-11T11:43:02.588Z,7.70
2022-09-11T11:45:35.133Z,6.85
2022-09-11T11:48:09.176Z,6.97
2022-09-11T11:50:43.886Z,8.27
2022-09-11T11:53:19.342Z,9.98
2022-09-11T11:55:55.578Z,8.25
2022-09-11T11:58:34.572Z,8.13
2022-09-11T12:01:06.912Z,7.60
2022-09-11T12:03:41.115Z,7.72
2022-09-11T12:06:11.336Z,6.93
2022-09-11T12:08:45.090Z,7.32
2022-09-11T12:11:16.286Z,7.25
2022-09-11T12:13:46.708Z,7.40
2022-09-11T12:16:19.550Z,7.30
2022-09-11T12:19:13.861Z,7.53
2022-09-11T12:21:59.128Z,7.50
2022-09-11T12:24:52.473Z,7.15
2022-09-11T12:27:55.856Z,6.22
2022-09-11T12:30:30.823Z,6.15
2022-09-11T12:33:01.345Z,6.00
2022-09-11T12:35:38.242Z,6.25
2022-09-11T12:38:20.172Z,6.30
2022-09-11T12:40:54.183Z,6.10
2022-09-11T12:43:45.494Z,6.30
2022-09-11T12:46:35.392Z,6.57
2022-09-11T12:49:22.315Z,6.03
2022-09-11T12:51:56.348Z,5.47
2022-09-11T12:54:29.653Z,5.47
2022-09-11T12:57:02.984Z,5.22
2022-09-11T12:59:34.920Z,4.60
2022-09-11T13:02:05.687Z,3.92
2022-09-11T13:04:34.945Z,4.10
2022-09-11T13:07:06.137Z,5.13
2022-09-11T13:09:39.628Z,5.43
2022-09-11T13:12:51.893Z,5.00
2022-09-11T13:15:41.192Z,5.40
2022-09-11T13:18:29.854Z,5.50
2022-09-11T13:21:04.740Z,4.72
2022-09-11T13:23:32.838Z,4.93
2022-09-11T13:26:03.228Z,5.45
2022-09-11T13:28:32.082Z,4.90
2022-09-11T13:31:04.938Z,4.53
2022-09-11T13:33:34.012Z,4.55
2022-09-11T13:36:03.940Z,4.28
2022-09-11T13:38:34.963Z,4.85
2022-09-11T13:41:07.112Z,4.85
2022-09-11T13:43:39.680Z,5.05
2022-09-11T13:46:21.190Z,4.82
2022-09-11T13:48:51.218Z,4.80
2022-09-11T13:51:23.860Z,4.53
2022-09-11T13:53:57.876Z,4.38
2022-09-11T13:56:47.082Z,4.10
2022-09-11T13:59:46.264Z,4.50
2022-09-11T14:02:31.155Z,4.25
2022-09-11T14:05:08.666Z,3.75
2022-09-11T14:07:47.301Z,3.78
2022-09-11T14:10:31.286Z,4.25
2022-09-11T14:13:14.091Z,4.00
2022-09-11T14:15:44.394Z,4.15
2022-09-11T14:18:24.415Z,3.80
2022-09-11T14:20:53.495Z,4.15
2022-09-11T14:23:25.742Z,3.95
2022-09-11T14:26:08.509Z,3.85
2022-09-11T14:28:44.224Z,4.30
2022-09-11T14:31:14.691Z,3.90
2022-09-11T14:33:43.045Z,3.88
2022-09-11T14:36:19.111Z,3.83
2022-09-11T14:38:48.286Z,3.65
2022-09-11T14:41:16.829Z,3.50
2022-09-11T14:43:49.578Z,3.63
2022-09-11T14:46:17.893Z,3.50
2022-09-11T14:48:46.797Z,3.58
2022-09-11T14:51:15.024Z,3.45
2022-09-11T14:53:43.926Z,3.10
2022-09-11T14:56:12.074Z,3.72
2022-09-11T14:58:40.392Z,3.08
2022-09-11T15:01:13.564Z,3.40
2022-09-11T15:03:41.854Z,3.22
2022-09-11T15:06:15.571Z,3.03
2022-09-11T15:08:43.647Z,3.20
2022-09-11T15:11:11.715Z,3.28
2022-09-11T15:13:57.858Z,3.20
2022-09-11T15:16:29.179Z,2.95
2022-09-11T15:18:57.183Z,2.92
2022-09-11T15:21:25.260Z,3.10
2022-09-11T15:23:54.207Z,2.90
2022-09-11T15:26:22.401Z,3.10
2022-09-11T15:28:51.750Z,2.63
2022-09-11T15:31:20.178Z,3.15
2022-09-11T15:33:53.295Z,2.60
2022-09-11T15:36:23.190Z,2.72
2022-09-11T15:38:54.924Z,2.65
2022-09-11T15:41:25.293Z,2.75
2022-09-11T15:43:53.801Z,2.55
2022-09-11T15:46:23.429Z,2.45
2022-09-11T15:48:53.320Z,2.83
2022-09-11T15:51:23.768Z,3.08
2022-09-11T15:53:52.467Z,2.60
2022-09-11T15:56:25.989Z,2.85
2022-09-11T15:58:54.283Z,2.72
2022-09-11T16:01:24.744Z,2.83
2022-09-11T16:03:55.546Z,2.55
2022-09-11T16:06:25.112Z,2.47
2022-09-11T16:08:56.720Z,2.50
2022-09-11T16:11:25.206Z,1.90
2022-09-11T16:13:55.033Z,2.25
2022-09-11T16:16:23.150Z,2.17
2022-09-11T16:18:51.396Z,1.92
2022-09-11T16:21:21.783Z,1.70
2022-09-11T16:23:54.284Z,1.70
2022-09-11T16:26:25.185Z,1.65
2022-09-11T16:28:53.262Z,1.40
2022-09-11T16:31:21.302Z,1.73
2022-09-11T16:33:49.943Z,1.58
2022-09-11T16:36:21.235Z,1.55
2022-09-11T16:38:50.260Z,1.75
2022-09-11T16:41:20.797Z,1.50
2022-09-11T16:43:50.676Z,1.70
2022-09-11T16:46:21.808Z,1.90
2022-09-11T16:48:54.403Z,1.63
2022-09-11T16:51:25.285Z,1.85
2022-09-11T16:53:53.556Z,1.88
2022-09-11T16:56:24.395Z,1.55
2022-09-11T16:58:52.492Z,1.58
2022-09-11T17:01:22.573Z,1.85
2022-09-11T17:03:52.275Z,1.90
2022-09-11T17:06:21.289Z,2.00
2022-09-11T17:08:52.807Z,1.73
2022-09-11T17:11:22.688Z,1.75
2022-09-11T17:13:50.828Z,1.80
2022-09-11T17:16:20.860Z,1.77
2022-09-11T17:18:49.932Z,2.13
2022-09-11T17:21:18.281Z,1.98
2022-09-11T17:23:46.849Z,2.22
2022-09-11T17:26:16.947Z,2.70
2022-09-11T17:28:47.285Z,2.20
2022-09-11T17:31:16.807Z,2.08
2022-09-11T17:33:45.517Z,2.10
2022-09-11T17:36:17.049Z,2.13
2022-09-11T17:38:45.913Z,2.20
2022-09-11T17:41:14.226Z,2.33
2022-09-11T17:43:44.016Z,2.17
2022-09-11T17:46:15.120Z,2.33
2022-09-11T17:48:44.288Z,3.00
2022-09-11T17:51:14.114Z,2.10
2022-09-11T17:53:44.562Z,2.20
2022-09-11T17:56:14.377Z,2.03
2022-09-11T17:58:44.997Z,2.33
2022-09-11T18:01:16.737Z,2.22
2022-09-11T18:03:50.336Z,2.25
2022-09-11T18:06:23.278Z,2.15
2022-09-11T18:08:51.320Z,2.22
2022-09-11T18:11:19.360Z,2.05
2022-09-11T18:13:49.109Z,2.20
2022-09-11T18:16:17.890Z,2.10
2022-09-11T18:18:46.000Z,2.60
2022-09-11T18:21:14.284Z,2.58
2022-09-11T18:23:44.502Z,2.65
2022-09-11T18:26:22.086Z,3.90
2022-09-11T18:28:52.050Z,2.53
2022-09-11T18:31:20.334Z,2.80
2022-09-11T18:33:54.649Z,2.20
2022-09-11T18:36:23.570Z,2.47
2022-09-11T18:38:52.025Z,2.40
2022-09-11T18:41:20.732Z,2.45
2022-09-11T18:43:49.040Z,2.13
2022-09-11T18:46:19.150Z,2.30
2022-09-11T18:48:48.515Z,2.42
2022-09-11T18:51:16.561Z,2.50
2022-09-11T18:53:47.955Z,2.45
2022-09-11T18:56:15.982Z,2.42
2022-09-11T18:58:45.509Z,2.70
2022-09-11T19:01:16.739Z,2.80
2022-09-11T19:03:47.258Z,2.80
2022-09-11T19:06:16.898Z,2.33
2022-09-11T19:08:47.688Z,2.73
2022-09-11T19:11:18.064Z,2.90
2022-09-11T19:13:46.677Z,8.03
2022-09-11T19:16:15.219Z,2.80
2022-09-11T19:18:43.418Z,2.87
2022-09-11T19:21:14.870Z,2.83
2022-09-11T19:23:44.973Z,3.90
2022-09-11T19:26:17.993Z,2.90
2022-09-11T19:28:47.168Z,3.00
2022-09-11T19:31:17.392Z,3.03
2022-09-11T19:33:45.774Z,2.80
2022-09-11T19:36:17.780Z,3.00
2022-09-11T19:38:48.196Z,3.20
2022-09-11T19:41:18.720Z,3.43
2022-09-11T19:43:47.684Z,2.90
2022-09-11T19:46:17.624Z,3.07
2022-09-11T19:48:46.759Z,3.20
2022-09-11T19:51:17.840Z,3.27
2022-09-11T19:53:46.128Z,2.97
2022-09-11T19:56:14.324Z,3.50
2022-09-11T19:58:42.967Z,3.20
2022-09-11T20:01:12.404Z,3.80
2022-09-11T20:03:41.776Z,3.53
2022-09-11T20:06:11.375Z,3.50
2022-09-11T20:08:43.423Z,3.20
2022-09-11T20:11:15.304Z,3.60
2022-09-11T20:13:43.684Z,4.10
2022-09-11T20:16:15.027Z,3.63
2022-09-11T20:18:43.548Z,4.10
2022-09-11T20:21:13.024Z,3.43
2022-09-11T20:23:43.505Z,4.20
2022-09-11T20:26:17.017Z,3.97
2022-09-11T20:28:45.759Z,4.20
2022-09-11T20:31:15.426Z,4.23
2022-09-11T20:33:44.310Z,4.30
2022-09-11T20:36:12.630Z,4.90
2022-09-11T20:38:42.255Z,4.23
2022-09-11T20:41:11.682Z,4.70
2022-09-11T20:43:40.069Z,4.77
2022-09-11T20:46:08.897Z,5.10
2022-09-11T20:48:37.051Z,5.70
2022-09-11T20:51:08.669Z,5.43
2022-09-11T20:53:37.058Z,5.03
2022-09-11T20:56:08.654Z,4.83
2022-09-11T20:58:37.855Z,4.60
2022-09-11T21:01:07.395Z,5.37
2022-09-11T21:03:35.675Z,4.87
2022-09-11T21:06:07.982Z,5.10
2022-09-11T21:08:36.684Z,5.50
2022-09-11T21:11:06.577Z,5.70
2022-09-11T21:13:35.959Z,6.07
2022-09-11T21:16:07.665Z,5.90
2022-09-11T21:18:36.720Z,6.03
2022-09-11T21:21:05.370Z,5.53
2022-09-11T21:23:33.524Z,5.90
2022-09-11T21:26:01.825Z,6.77
2022-09-11T21:28:32.252Z,5.83
2022-09-11T21:31:00.407Z,6.10
2022-09-11T21:33:28.547Z,6.53
2022-09-11T21:35:56.716Z,6.70
2022-09-11T21:38:28.522Z,5.97
2022-09-11T21:40:57.703Z,6.33
2022-09-11T21:43:27.222Z,6.40
2022-09-11T21:45:56.644Z,6.73
2022-09-11T21:48:24.968Z,5.60
2022-09-11T21:50:53.169Z,6.43
2022-09-11T21:53:21.583Z,6.20
2022-09-11T21:55:49.672Z,6.17
2022-09-11T21:58:20.926Z,5.97
2022-09-11T22:00:49.677Z,5.87
2022-09-11T22:03:20.427Z,6.33
2022-09-11T22:05:51.243Z,7.13
2022-09-11T22:08:20.428Z,6.60
2022-09-11T22:10:50.200Z,6.40
2022-09-11T22:13:19.716Z,11.63
2022-09-11T22:15:49.989Z,19.67
2022-09-11T22:18:20.055Z,21.63
2022-09-11T22:20:48.216Z,21.80
2022-09-11T22:23:17.946Z,8.00
2022-09-11T22:25:47.098Z,10.07
2022-09-11T22:28:16.047Z,8.77
2022-09-11T22:30:44.848Z,8.97
2022-09-11T22:33:12.879Z,8.97
2022-09-11T22:35:42.993Z,8.60
2022-09-11T22:38:13.184Z,8.20
2022-09-11T22:40:41.319Z,7.63
2022-09-11T22:43:09.595Z,7.83
2022-09-11T22:45:37.693Z,7.80
2022-09-11T22:48:05.850Z,8.83
2022-09-11T22:50:34.717Z,8.63
2022-09-11T22:53:04.111Z,9.03
2022-09-11T22:55:32.160Z,8.60
2022-09-11T22:58:00.167Z,8.43
2022-09-11T23:00:28.252Z,8.70
2022-09-11T23:02:56.279Z,8.93
2022-09-11T23:05:41.718Z,8.60
2022-09-11T23:08:11.118Z,7.97
2022-09-11T23:10:42.194Z,7.97
2022-09-11T23:13:10.678Z,8.13
2022-09-11T23:15:38.810Z,8.07
2022-09-11T23:18:06.919Z,8.00
2022-09-11T23:20:34.969Z,7.90
2022-09-11T23:23:03.775Z,7.97
2022-09-11T23:25:34.287Z,7.47
2022-09-11T23:28:02.325Z,8.93
2022-09-11T23:30:30.384Z,8.87
2022-09-11T23:32:58.398Z,8.67
2022-09-11T23:35:26.442Z,8.87
2022-09-11T23:37:54.464Z,8.03
2022-09-11T23:40:22.552Z,8.80
2022-09-11T23:42:51.943Z,8.27
2022-09-11T23:45:20.362Z,8.77
2022-09-11T23:47:48.422Z,8.00
2022-09-11T23:50:16.790Z,8.67
2022-09-11T23:52:44.824Z,7.60
2022-09-11T23:55:13.475Z,7.60
2022-09-11T23:57:41.507Z,7.53
